Time;durP1;ratioP1;P1;durP2;ratioP2;P2;SDS_P1;SDS_P2;PMS_P1;PMS_P2;Temp;Humidity;BMP_temperature;BMP_pressure;BME280_temperature;BME280_humidity;BME280_pressure;Samples;Min_cycle;Max_cycle;Signal;HPM_P1;HPM_P2
2023/03/24 00:02:08;;;;;;;3.92;1.38;;;12.80;99.90;;;;;;4773444;30;20043;-83
2023/03/24 00:04:34;;;;;;;3.83;1.52;;;12.80;99.90;;;;;;4774626;30;20030;-81
2023/03/24 00:07:02;;;;;;;3.47;1.20;;;12.90;99.90;;;;;;4778536;30;20028;-81
2023/03/24 00:09:29;;;;;;;6.90;1.88;;;12.90;99.90;;;;;;4771715;30;20067;-81
2023/03/24 00:11:55;;;;;;;3.70;1.58;;;12.80;99.90;;;;;;4771261;30;20047;-79
2023/03/24 00:14:22;;;;;;;6.70;1.65;;;12.80;99.90;;;;;;4756179;30;20091;-83
2023/03/24 00:16:49;;;;;;;3.58;1.60;;;12.80;99.90;;;;;;4773432;30;20092;-80
2023/03/24 00:19:15;;;;;;;4.47;1.65;;;12.80;99.90;;;;;;4770931;30;20122;-79
2023/03/24 00:21:42;;;;;;;5.85;1.50;;;12.90;99.90;;;;;;4770239;30;20040;-79
2023/03/24 00:24:10;;;;;;;8.27;1.73;;;12.90;99.90;;;;;;4770789;30;20119;-78
2023/03/24 00:26:37;;;;;;;5.25;1.67;;;12.80;99.90;;;;;;4784458;30;20073;-80
2023/03/24 00:29:05;;;;;;;5.93;1.40;;;12.80;99.90;;;;;;4770735;30;20089;-82
2023/03/24 00:31:42;;;;;;;8.52;2.10;;;12.80;99.90;;;;;;4769760;30;20093;-79
2023/03/24 00:34:09;;;;;;;5.38;1.40;;;12.80;99.90;;;;;;4784972;30;20438;-78
2023/03/24 00:36:35;;;;;;;5.32;1.98;;;12.90;99.90;;;;;;4784186;30;20056;-78
2023/03/24 00:39:01;;;;;;;4.13;1.35;;;12.90;99.90;;;;;;4770418;30;20067;-79
2023/03/24 00:41:27;;;;;;;6.22;2.03;;;12.80;99.90;;;;;;4769172;30;20460;-79
2023/03/24 00:43:57;;;;;;;6.38;2.05;;;12.90;99.90;;;;;;4754320;30;20032;-79
2023/03/24 00:46:27;;;;;;;4.20;1.60;;;12.80;99.90;;;;;;4785097;30;20032;-78
2023/03/24 00:49:05;;;;;;;6.00;1.90;;;12.90;99.90;;;;;;4771197;30;20028;-80
2023/03/24 00:51:39;;;;;;;4.30;1.38;;;12.90;99.90;;;;;;4784235;30;20131;-80
2023/03/24 00:54:08;;;;;;;6.93;2.13;;;12.80;99.90;;;;;;4770445;30;20068;-79
2023/03/24 00:56:36;;;;;;;4.25;1.90;;;12.80;99.90;;;;;;4770580;30;20096;-79
2023/03/24 00:59:03;;;;;;;4.35;1.73;;;12.80;99.90;;;;;;4770021;30;20036;-78
2023/03/24 01:01:37;;;;;;;5.35;1.77;;;12.90;99.90;;;;;;4784826;30;20539;-80
2023/03/24 01:04:04;;;;;;;5.32;2.00;;;12.80;99.90;;;;;;4770060;30;20492;-80
2023/03/24 01:06:30;;;;;;;4.13;1.70;;;12.80;99.90;;;;;;4785079;30;20032;-78
2023/03/24 01:08:56;;;;;;;4.70;1.67;;;12.80;99.90;;;;;;4768891;30;20126;-79
2023/03/24 01:11:24;;;;;;;6.65;1.92;;;12.80;99.90;;;;;;4783948;30;20481;-79
2023/03/24 01:13:51;;;;;;;4.45;1.95;;;12.80;99.90;;;;;;4773238;30;20092;-79
2023/03/24 01:16:17;;;;;;;4.38;1.83;;;12.80;99.90;;;;;;4773968;30;20040;-78
2023/03/24 01:18:43;;;;;;;4.75;1.73;;;12.80;99.90;;;;;;4787844;30;20457;-77
2023/03/24 01:21:11;;;;;;;6.15;1.60;;;12.80;99.90;;;;;;4772707;30;20397;-80
2023/03/24 01:23:37;;;;;;;4.80;1.58;;;12.90;99.90;;;;;;4787640;30;20043;-79
2023/03/24 01:26:09;;;;;;;5.50;1.77;;;12.90;99.90;;;;;;4789305;30;20032;-80
2023/03/24 01:28:39;;;;;;;4.35;1.80;;;12.90;99.90;;;;;;4775956;30;20039;-80
2023/03/24 01:31:09;;;;;;;3.83;1.58;;;12.90;99.90;;;;;;4774692;30;20470;-80
2023/03/24 01:33:36;;;;;;;4.75;1.75;;;12.90;99.90;;;;;;4773763;30;20036;-80
2023/03/24 01:36:03;;;;;;;6.35;2.03;;;13.00;99.90;;;;;;4788171;30;20516;-82
2023/03/24 01:38:29;;;;;;;4.10;1.50;;;13.00;99.90;;;;;;4780672;30;20089;-82
2023/03/24 01:40:55;;;;;;;3.40;1.40;;;13.00;99.90;;;;;;4779899;30;20062;-82
2023/03/24 01:43:29;;;;;;;3.33;1.30;;;13.00;99.90;;;;;;4763472;30;20040;-81
2023/03/24 01:46:01;;;;;;;2.08;1.30;;;13.00;99.90;;;;;;4795958;30;20031;-81
2023/03/24 01:48:40;;;;;;;3.42;1.40;;;13.00;99.90;;;;;;4780013;30;20031;-82
2023/03/24 01:51:13;;;;;;;5.30;1.60;;;13.10;99.90;;;;;;4795435;30;20478;-81
2023/03/24 01:53:49;;;;;;;;;;;13.00;99.90;;;;;;4781998;30;20036;-81
2023/03/24 01:56:15;;;;;;;3.75;1.13;;;13.00;99.90;;;;;;4779657;30;20359;-81
2023/03/24 01:58:46;;;;;;;3.30;1.70;;;13.10;99.90;;;;;;4778171;30;20119;-82
2023/03/24 02:01:12;;;;;;;3.33;1.60;;;13.10;99.90;;;;;;4796793;30;20039;-81
2023/03/24 02:03:39;;;;;;;2.83;1.55;;;13.10;99.90;;;;;;4780989;30;20488;-81
2023/03/24 02:06:07;;;;;;;3.30;1.70;;;13.00;99.90;;;;;;4779037;30;20099;-81
2023/03/24 02:08:47;;;;;;;2.20;1.33;;;13.00;99.90;;;;;;4772267;30;20398;-81
2023/03/24 02:11:15;;;;;;;3.88;1.65;;;13.00;99.90;;;;;;4773009;30;20085;-81
2023/03/24 02:13:41;;;;;;;2.95;1.73;;;13.00;99.90;;;;;;4772670;30;20031;-80
2023/03/24 02:16:11;;;;;;;2.78;1.70;;;13.00;99.90;;;;;;4786444;30;20495;-81
2023/03/24 02:18:53;;;;;;;4.90;1.45;;;12.90;99.90;;;;;;4771628;30;20051;-80
2023/03/24 02:21:19;;;;;;;3.17;1.50;;;12.90;99.90;;;;;;4773169;30;20039;-80
2023/03/24 02:24:06;;;;;;;3.05;1.50;;;13.00;99.90;;;;;;4771241;30;20382;-81
2023/03/24 02:27:00;;;;;;;3.00;1.33;;;13.00;99.90;;;;;;4772129;30;20036;-80
2023/03/24 02:29:44;;;;;;;3.88;1.55;;;13.00;99.90;;;;;;4771950;30;20422;-80
2023/03/24 02:32:44;;;;;;;5.13;1.60;;;13.00;99.90;;;;;;4771652;30;20063;-80
2023/03/24 02:35:24;;;;;;;4.25;1.70;;;13.00;99.90;;;;;;4772724;30;20076;-80
2023/03/24 02:38:28;;;;;;;3.22;1.60;;;13.00;99.90;;;;;;4790605;30;20055;-81
2023/03/24 02:41:13;;;;;;;3.22;1.50;;;13.00;99.90;;;;;;4790605;30;20469;-80
2023/03/24 02:43:51;;;;;;;3.20;1.83;;;13.10;99.90;;;;;;4790453;30;20046;-80
2023/03/24 02:46:26;;;;;;;3.53;2.00;;;13.00;99.90;;;;;;4774682;30;20492;-80
2023/03/24 02:49:27;;;;;;;5.20;2.00;;;13.00;99.90;;;;;;4790250;30;20031;-80
2023/03/24 02:52:06;;;;;;;2.70;1.60;;;13.00;99.90;;;;;;4784030;30;20116;-81
2023/03/24 02:54:43;;;;;;;4.10;1.58;;;13.00;99.90;;;;;;4790112;30;20023;-80
2023/03/24 02:57:17;;;;;;;5.53;1.70;;;13.00;99.90;;;;;;4774579;30;20440;-82
2023/03/24 02:59:59;;;;;;;3.05;1.50;;;12.90;99.90;;;;;;4788769;30;20036;-81
2023/03/24 03:02:52;;;;;;;2.70;1.75;;;13.00;99.90;;;;;;4789273;30;20031;-81
2023/03/24 03:05:33;;;;;;;3.60;1.75;;;13.00;99.90;;;;;;4789623;30;20124;-81
2023/03/24 03:08:02;;;;;;;2.15;1.27;;;13.00;99.90;;;;;;4789687;30;20110;-81
2023/03/24 03:10:37;;;;;;;3.17;1.50;;;13.00;99.90;;;;;;4790033;30;20063;-81
2023/03/24 03:13:13;;;;;;;4.53;1.95;;;13.00;99.90;;;;;;4788846;30;20385;-81
2023/03/24 03:15:44;;;;;;;4.47;1.80;;;13.10;99.90;;;;;;4774255;30;20027;-81
2023/03/24 03:18:16;;;;;;;2.40;0.70;;;13.10;99.90;;;;;;4789728;30;20032;-81
2023/03/24 03:20:51;;;;;;;2.55;0.50;;;13.00;99.90;;;;;;4789720;30;20039;-80
2023/03/24 03:23:29;;;;;;;2.55;0.50;;;12.90;99.90;;;;;;4789623;30;20045;-80
2023/03/24 03:26:04;;;;;;;3.65;0.50;;;12.80;99.90;;;;;;4789394;30;20084;-80
2023/03/24 03:28:33;;;;;;;1.33;0.32;;;12.80;99.90;;;;;;4788333;30;20469;-80
2023/03/24 03:31:04;;;;;;;1.70;0.40;;;12.80;99.90;;;;;;4772997;30;20039;-80
2023/03/24 03:33:36;;;;;;;1.50;0.30;;;12.80;99.90;;;;;;4788240;30;20031;-81
2023/03/24 03:36:19;;;;;;;1.90;0.38;;;12.70;99.90;;;;;;4787250;29;20057;-81
2023/03/24 03:39:00;;;;;;;2.55;0.50;;;12.70;99.90;;;;;;4787873;30;20039;-74
2023/03/24 03:41:25;;;;;;;1.30;0.28;;;12.60;99.90;;;;;;4788723;30;20039;-74
2023/03/24 03:43:52;;;;;;;1.83;0.30;;;12.60;99.90;;;;;;4773084;30;20043;-74
2023/03/24 03:46:18;;;;;;;2.58;0.40;;;12.50;99.90;;;;;;4789100;30;20078;-74
2023/03/24 03:48:44;;;;;;;3.30;0.30;;;12.50;99.90;;;;;;4773152;30;20039;-74
2023/03/24 03:51:11;;;;;;;3.55;0.40;;;12.40;99.90;;;;;;4773566;30;20083;-74
2023/03/24 03:53:51;;;;;;;4.05;0.43;;;12.40;99.90;;;;;;4787897;30;20035;-74
2023/03/24 03:56:21;;;;;;;7.68;0.75;;;12.30;99.90;;;;;;4787899;30;20525;-74
2023/03/24 03:58:47;;;;;;;2.58;0.30;;;12.20;99.90;;;;;;4789072;30;20039;-74
2023/03/24 04:01:17;;;;;;;4.60;0.35;;;12.20;99.90;;;;;;4773441;30;20147;-74
2023/03/24 04:03:58;;;;;;;4.65;0.43;;;12.10;99.90;;;;;;4787761;30;20031;-73
2023/03/24 04:06:36;;;;;;;7.43;0.70;;;12.10;99.90;;;;;;4789030;30;20485;-74
2023/03/24 04:09:30;;;;;;;4.85;0.98;;;12.10;99.90;;;;;;4788691;30;20546;-74
2023/03/24 04:12:34;;;;;;;5.45;0.40;;;12.10;99.90;;;;;;4787957;30;20435;-74
2023/03/24 04:15:08;;;;;;;8.07;0.80;;;12.00;99.90;;;;;;4789161;30;20031;-75
2023/03/24 04:17:52;;;;;;;6.38;1.52;;;11.90;99.90;;;;;;4772773;30;20058;-74
2023/03/24 04:20:23;;;;;;;4.97;0.60;;;11.90;99.90;;;;;;4789083;30;20168;-74
2023/03/24 04:23:17;;;;;;;6.82;0.57;;;11.90;99.90;;;;;;4787777;30;20461;-74
2023/03/24 04:25:43;;;;;;;;;;;11.90;99.90;;;;;;4783755;30;20051;-74
2023/03/24 04:28:47;;;;;;;8.10;0.82;;;11.90;99.90;;;;;;4788703;30;19932;-74
2023/03/24 04:31:28;;;;;;;;;;;11.80;99.90;;;;;;4755402;30;20063;-74
2023/03/24 04:34:03;;;;;;;5.70;0.75;;;11.80;99.90;;;;;;4788210;30;20330;-74
2023/03/24 04:36:49;;;;;;;8.10;0.98;;;11.70;99.90;;;;;;4787497;30;20051;-74
2023/03/24 04:39:24;;;;;;;8.00;0.93;;;11.60;99.90;;;;;;4787896;30;20477;-74
2023/03/24 04:41:51;;;;;;;7.72;1.23;;;11.70;99.90;;;;;;4788812;30;20058;-74
2023/03/24 04:44:20;;;;;;;11.20;1.40;;;11.60;99.90;;;;;;4788018;30;20039;-75
2023/03/24 04:46:50;;;;;;;16.58;2.17;;;11.50;99.90;;;;;;4788603;29;20034;-75
2023/03/24 04:49:18;;;;;;;20.80;3.28;;;11.50;99.90;;;;;;4791607;30;20074;-75
2023/03/24 04:51:44;;;;;;;9.98;1.63;;;11.40;99.90;;;;;;4776106;30;20042;-75
2023/03/24 04:54:10;;;;;;;9.85;1.25;;;11.40;99.90;;;;;;4790994;30;20039;-75
2023/03/24 04:56:47;;;;;;;12.95;1.55;;;11.40;99.90;;;;;;4775782;30;20042;-75
2023/03/24 04:59:14;;;;;;;14.65;1.83;;;11.40;99.90;;;;;;4791454;30;20096;-75
2023/03/24 05:01:48;;;;;;;17.60;1.73;;;11.40;99.90;;;;;;4792016;30;20133;-75
2023/03/24 05:04:19;;;;;;;11.90;1.60;;;11.40;99.90;;;;;;4791363;30;20039;-74
2023/03/24 05:06:51;;;;;;;13.77;1.98;;;11.40;99.90;;;;;;4776478;30;20035;-75
2023/03/24 05:09:20;;;;;;;20.08;2.58;;;11.30;99.90;;;;;;4791011;30;20036;-75
2023/03/24 05:11:46;;;;;;;15.82;2.00;;;11.40;99.90;;;;;;4791811;30;20501;-75
2023/03/24 05:14:12;;;;;;;14.85;1.98;;;11.40;99.90;;;;;;4791834;30;20062;-75
2023/03/24 05:16:38;;;;;;;14.32;1.60;;;11.40;99.90;;;;;;4790573;30;20027;-75
2023/03/24 05:19:03;;;;;;;12.90;1.65;;;11.30;99.90;;;;;;4791544;30;20449;-76
2023/03/24 05:21:32;;;;;;;18.77;1.60;;;11.30;99.90;;;;;;4790783;30;20134;-76
2023/03/24 05:23:58;;;;;;;14.75;1.30;;;11.30;99.90;;;;;;4790915;30;20475;-75
2023/03/24 05:26:25;;;;;;;15.57;2.17;;;11.30;99.90;;;;;;4775315;30;20122;-75
2023/03/24 05:28:51;;;;;;;14.45;2.05;;;11.30;99.90;;;;;;4775444;30;20465;-75
2023/03/24 05:31:17;;;;;;;15.05;1.80;;;11.30;99.90;;;;;;4790471;30;20433;-75
2023/03/24 05:33:43;;;;;;;11.52;1.50;;;11.30;99.90;;;;;;4775581;30;20086;-75
2023/03/24 05:36:09;;;;;;;15.60;1.95;;;11.30;99.90;;;;;;4775242;30;20051;-75
2023/03/24 05:38:35;;;;;;;16.85;1.80;;;11.30;99.90;;;;;;4791153;30;20528;-75
2023/03/24 05:41:01;;;;;;;17.92;2.20;;;11.30;99.90;;;;;;4775302;30;20036;-75
2023/03/24 05:43:27;;;;;;;18.55;2.03;;;11.30;99.90;;;;;;4791364;30;20114;-75
2023/03/24 05:45:53;;;;;;;13.32;2.03;;;11.30;99.90;;;;;;4791259;30;20118;-75
2023/03/24 05:48:19;;;;;;;15.27;2.30;;;11.30;99.90;;;;;;4775597;30;20032;-75
2023/03/24 05:50:44;;;;;;;19.00;2.92;;;11.30;99.90;;;;;;4775222;30;20035;-75
2023/03/24 05:53:10;;;;;;;14.27;2.95;;;11.30;99.90;;;;;;4790139;30;20036;-75
2023/03/24 05:55:36;;;;;;;13.23;2.70;;;11.30;99.90;;;;;;4791161;30;20111;-75
2023/03/24 05:58:02;;;;;;;14.50;2.25;;;11.30;99.90;;;;;;4791301;29;20038;-75
2023/03/24 06:00:32;;;;;;;13.43;2.38;;;11.30;99.90;;;;;;4773955;30;20046;-75
2023/03/24 06:02:58;;;;;;;20.55;2.50;;;11.30;99.90;;;;;;4789751;30;20038;-75
2023/03/24 06:05:25;;;;;;;17.83;2.38;;;11.30;99.90;;;;;;4790962;30;20042;-75
2023/03/24 06:07:51;;;;;;;21.27;3.60;;;11.30;99.90;;;;;;4790906;30;20031;-75
2023/03/24 06:10:17;;;;;;;15.82;3.05;;;11.20;99.90;;;;;;4774558;30;20043;-75
2023/03/24 06:12:44;;;;;;;15.35;2.80;;;11.20;99.90;;;;;;4774929;30;20039;-75
2023/03/24 06:15:10;;;;;;;11.63;2.40;;;11.30;99.90;;;;;;4790027;30;20028;-76
2023/03/24 06:17:36;;;;;;;18.80;2.65;;;11.30;99.90;;;;;;4790883;30;20035;-75
2023/03/24 06:20:04;;;;;;;16.85;2.70;;;11.30;99.90;;;;;;4774538;30;20072;-75
2023/03/24 06:22:33;;;;;;;14.82;2.50;;;11.30;99.90;;;;;;4790695;30;20491;-76
2023/03/24 06:24:59;;;;;;;15.93;2.70;;;11.30;99.90;;;;;;4790659;30;20071;-75
2023/03/24 06:27:29;;;;;;;16.10;2.33;;;11.40;99.90;;;;;;4774445;30;20032;-75
2023/03/24 06:29:58;;;;;;;18.77;2.35;;;11.40;99.90;;;;;;4788857;30;20035;-75
2023/03/24 06:32:25;;;;;;;14.07;2.53;;;11.40;99.90;;;;;;4760475;30;20066;-75
2023/03/24 06:34:51;;;;;;;15.43;2.65;;;11.40;99.90;;;;;;4774222;30;20058;-75
2023/03/24 06:37:17;;;;;;;14.88;2.72;;;11.40;99.90;;;;;;4774305;30;20117;-75
2023/03/24 06:39:44;;;;;;;13.23;2.50;;;11.40;99.90;;;;;;4774478;30;20466;-75
2023/03/24 06:42:09;;;;;;;15.35;2.75;;;11.40;99.90;;;;;;4774200;30;20042;-75
2023/03/24 06:44:35;;;;;;;15.80;2.70;;;11.40;99.90;;;;;;4789102;30;20035;-74
2023/03/24 06:47:01;;;;;;;16.77;2.88;;;11.50;99.90;;;;;;4774332;30;20040;-75
2023/03/24 06:49:26;;;;;;;13.30;2.70;;;11.50;99.90;;;;;;4790276;30;20126;-75
2023/03/24 06:51:53;;;;;;;14.55;3.00;;;11.40;99.90;;;;;;4774525;30;20099;-75
2023/03/24 06:54:18;;;;;;;11.20;2.40;;;11.50;99.90;;;;;;4774473;30;20031;-75
2023/03/24 06:56:44;;;;;;;23.65;3.38;;;11.50;99.90;;;;;;4773846;30;20038;-75
2023/03/24 06:59:10;;;;;;;14.18;2.83;;;11.50;99.90;;;;;;4774219;30;20367;-76
2023/03/24 07:01:37;;;;;;;13.75;2.55;;;11.40;99.90;;;;;;4773591;30;20039;-74
2023/03/24 07:04:03;;;;;;;20.90;3.08;;;11.40;99.90;;;;;;4774521;30;20039;-75
2023/03/24 07:06:29;;;;;;;15.88;2.42;;;11.50;99.90;;;;;;4789079;30;20031;-76
2023/03/24 07:08:56;;;;;;;10.43;2.33;;;11.50;99.90;;;;;;4789975;30;20041;-76
2023/03/24 07:11:23;;;;;;;16.60;3.83;;;11.50;99.90;;;;;;4774059;30;20424;-77
2023/03/24 07:13:49;;;;;;;12.73;2.30;;;11.50;99.90;;;;;;4774110;30;20450;-76
2023/03/24 07:16:15;;;;;;;16.55;2.92;;;11.60;99.90;;;;;;4773381;30;20492;-76
2023/03/24 07:18:40;;;;;;;17.55;2.50;;;11.60;99.90;;;;;;4773422;30;20035;-76
2023/03/24 07:21:07;;;;;;;14.70;2.22;;;11.60;99.90;;;;;;4789175;30;20151;-76
2023/03/24 07:23:33;;;;;;;14.25;2.70;;;11.60;99.90;;;;;;4790807;30;20118;-77
2023/03/24 07:25:59;;;;;;;14.00;2.78;;;11.70;99.90;;;;;;4791024;30;20467;-78
2023/03/24 07:28:25;;;;;;;14.27;2.28;;;11.70;99.90;;;;;;4791399;30;20065;-79
2023/03/24 07:30:50;;;;;;;14.32;2.15;;;11.70;99.90;;;;;;4776409;30;20039;-77
2023/03/24 07:33:16;;;;;;;15.90;2.53;;;11.70;99.90;;;;;;4774967;30;20470;-78
2023/03/24 07:35:42;;;;;;;11.05;2.05;;;11.70;99.90;;;;;;4789568;30;20122;-78
2023/03/24 07:38:09;;;;;;;12.68;2.38;;;11.80;99.90;;;;;;4760253;30;20373;-78
2023/03/24 07:40:34;;;;;;;15.93;2.38;;;11.80;99.90;;;;;;4759905;30;20070;-76
2023/03/24 07:43:04;;;;;;;13.27;2.70;;;11.90;99.90;;;;;;4775252;30;20065;-78
2023/03/24 07:45:30;;;;;;;16.48;2.20;;;11.80;99.90;;;;;;4789949;30;20027;-77
2023/03/24 07:48:00;;;;;;;16.98;2.10;;;11.80;99.90;;;;;;4788873;30;20027;-78
2023/03/24 07:50:29;;;;;;;14.38;2.58;;;11.80;99.90;;;;;;4791321;30;20034;-79
2023/03/24 07:52:54;;;;;;;14.38;2.30;;;11.80;99.90;;;;;;4775371;30;20374;-78
2023/03/24 07:55:20;;;;;;;14.70;2.88;;;11.90;99.90;;;;;;4759592;30;20046;-78
2023/03/24 07:57:47;;;;;;;21.90;2.95;;;12.00;99.90;;;;;;4773946;30;20097;-79
2023/03/24 08:00:23;;;;;;;16.90;2.22;;;12.00;99.90;;;;;;4789057;30;20078;-78
2023/03/24 08:02:52;;;;;;;15.45;2.30;;;12.20;99.90;;;;;;4784239;30;20123;-78
2023/03/24 08:05:20;;;;;;;11.15;1.67;;;12.40;99.90;;;;;;4776577;30;20035;-78
2023/03/24 08:07:52;;;;;;;13.35;1.52;;;12.50;99.90;;;;;;4775282;30;20123;-77
2023/03/24 08:10:22;;;;;;;13.75;2.08;;;12.60;99.90;;;;;;4783787;30;20476;-79
2023/03/24 08:12:48;;;;;;;16.40;2.28;;;12.70;99.90;;;;;;4799706;30;20135;-78
2023/03/24 08:15:14;;;;;;;15.60;3.95;;;12.60;99.90;;;;;;4773911;30;20076;-77
2023/03/24 08:17:40;;;;;;;19.40;3.75;;;12.70;99.90;;;;;;4775737;30;20067;-78
2023/03/24 08:20:11;;;;;;;15.43;2.55;;;12.70;99.90;;;;;;4789481;30;20031;-77
2023/03/24 08:22:40;;;;;;;18.67;2.63;;;12.70;99.90;;;;;;4792627;30;20054;-77
2023/03/24 08:25:07;;;;;;;14.13;2.00;;;12.80;99.90;;;;;;4776223;30;20057;-79
2023/03/24 08:27:32;;;;;;;14.15;2.63;;;12.80;99.90;;;;;;4807999;30;20448;-78
2023/03/24 08:29:58;;;;;;;15.05;1.85;;;12.80;99.90;;;;;;4792170;30;20027;-80
2023/03/24 08:32:24;;;;;;;13.45;2.63;;;12.90;99.90;;;;;;4792667;30;20043;-80
2023/03/24 08:34:50;;;;;;;13.00;1.50;;;12.90;99.90;;;;;;4806081;30;20031;-79
2023/03/24 08:37:16;;;;;;;17.20;2.22;;;12.90;99.90;;;;;;4807783;30;20142;-80
2023/03/24 08:39:41;;;;;;;15.10;2.60;;;12.90;99.90;;;;;;4805908;30;20039;-78
2023/03/24 08:42:07;;;;;;;11.55;2.03;;;12.90;99.90;;;;;;4791399;30;20035;-78
2023/03/24 08:44:36;;;;;;;12.95;1.92;;;12.90;99.90;;;;;;4791266;29;20065;-80
2023/03/24 08:47:02;;;;;;;8.70;1.40;;;12.90;99.90;;;;;;4793285;30;20062;-76
2023/03/24 08:49:28;;;;;;;9.55;1.63;;;12.90;99.90;;;;;;4788743;30;20059;-77
2023/03/24 08:51:53;;;;;;;13.25;2.08;;;12.90;99.90;;;;;;4771945;30;20043;-77
2023/03/24 08:54:22;;;;;;;12.00;2.03;;;12.80;99.90;;;;;;4771884;30;20050;-77
2023/03/24 08:56:48;;;;;;;12.48;2.08;;;12.90;99.90;;;;;;4787874;30;20092;-77
2023/03/24 08:59:13;;;;;;;14.30;2.63;;;13.00;99.90;;;;;;4771762;30;20035;-78
2023/03/24 09:01:39;;;;;;;12.63;2.50;;;13.00;99.90;;;;;;4772177;30;20122;-77
2023/03/24 09:04:05;;;;;;;10.93;2.17;;;13.10;99.90;;;;;;4787642;30;20510;-77
2023/03/24 09:06:31;;;;;;;18.25;2.40;;;13.10;99.90;;;;;;4774000;30;20453;-78
2023/03/24 09:08:57;;;;;;;9.77;1.88;;;13.10;99.90;;;;;;4775493;30;20092;-78
2023/03/24 09:11:23;;;;;;;10.65;1.98;;;13.20;99.90;;;;;;4792343;30;20031;-78
2023/03/24 09:13:49;;;;;;;9.75;1.98;;;13.20;99.90;;;;;;4774494;30;20133;-78
2023/03/24 09:16:16;;;;;;;11.38;2.10;;;13.40;99.90;;;;;;4775727;30;20461;-80
2023/03/24 09:18:45;;;;;;;14.55;1.73;;;13.40;99.90;;;;;;4790500;30;20384;-79
2023/03/24 09:21:11;;;;;;;12.45;1.80;;;13.50;99.90;;;;;;4762050;30;20079;-79
2023/03/24 09:23:37;;;;;;;9.30;2.17;;;13.50;99.90;;;;;;4793207;30;20035;-79
2023/03/24 09:26:03;;;;;;;15.23;2.40;;;13.60;99.90;;;;;;4776804;30;20036;-79
2023/03/24 09:28:30;;;;;;;11.98;2.10;;;13.60;99.60;;;;;;4792499;30;20087;-79
2023/03/24 09:31:01;;;;;;;13.55;1.73;;;13.50;99.90;;;;;;4789362;30;20130;-79
2023/03/24 09:33:28;;;;;;;13.35;1.98;;;13.40;99.90;;;;;;4789456;29;20130;-80
2023/03/24 09:35:59;;;;;;;15.13;1.70;;;13.40;99.90;;;;;;4792929;30;20035;-79
2023/03/24 09:38:25;;;;;;;9.85;1.50;;;13.40;99.90;;;;;;4791409;30;20027;-76
2023/03/24 09:41:01;;;;;;;9.70;2.38;;;13.60;99.90;;;;;;4775871;30;20188;-77
2023/03/24 09:43:41;;;;;;;7.90;1.50;;;13.60;99.80;;;;;;4790614;30;20080;-76
2023/03/24 09:46:14;;;;;;;8.63;1.77;;;13.60;99.50;;;;;;4789637;30;20035;-77
2023/03/24 09:48:50;;;;;;;10.10;1.42;;;13.50;99.60;;;;;;4791047;30;20035;-77
2023/03/24 09:51:26;;;;;;;8.35;1.42;;;13.40;99.90;;;;;;4791274;30;20038;-77
2023/03/24 09:54:07;;;;;;;11.32;1.55;;;13.40;99.90;;;;;;4790094;30;20528;-77
2023/03/24 09:56:35;;;;;;;8.23;1.95;;;13.60;99.90;;;;;;4791367;30;20084;-76
2023/03/24 09:59:06;;;;;;;8.90;1.00;;;13.60;99.40;;;;;;4791432;30;20435;-76
2023/03/24 10:01:35;;;;;;;7.43;1.23;;;13.60;99.40;;;;;;4793699;30;20046;-77
2023/03/24 10:04:01;;;;;;;9.68;1.08;;;13.60;99.50;;;;;;4776720;30;20042;-78
2023/03/24 10:06:43;;;;;;;6.78;1.38;;;13.70;99.50;;;;;;4777864;30;20039;-78
2023/03/24 10:09:35;;;;;;;13.93;1.63;;;13.70;98.90;;;;;;4791890;30;20411;-79
2023/03/24 10:12:14;;;;;;;12.03;1.60;;;13.70;99.00;;;;;;4792266;30;20062;-77
2023/03/24 10:15:05;;;;;;;9.68;1.38;;;13.70;99.00;;;;;;4790900;30;20031;-78
2023/03/24 10:17:50;;;;;;;7.30;1.13;;;13.60;99.20;;;;;;4789894;30;20032;-77
2023/03/24 10:20:34;;;;;;;6.30;0.93;;;13.40;99.40;;;;;;4775877;30;20066;-78
2023/03/24 10:23:10;;;;;;;11.90;1.95;;;13.40;99.60;;;;;;4780310;30;20035;-78
2023/03/24 10:25:48;;;;;;;10.15;1.00;;;13.40;99.60;;;;;;4789408;30;20035;-78
2023/03/24 10:28:33;;;;;;;11.00;1.50;;;13.40;99.80;;;;;;4807998;30;20032;-78
2023/03/24 10:31:04;;;;;;;10.63;1.73;;;13.70;99.70;;;;;;4805912;30;20466;-78
2023/03/24 10:33:30;;;;;;;10.73;1.63;;;13.90;98.40;;;;;;4811641;30;20015;-78
2023/03/24 10:35:58;;;;;;;9.40;1.38;;;14.00;98.70;;;;;;4790089;30;20035;-77
2023/03/24 10:38:24;;;;;;;8.07;1.33;;;14.20;97.60;;;;;;4804721;29;20039;-77
2023/03/24 10:40:52;;;;;;;8.75;1.02;;;14.30;97.00;;;;;;4780040;30;20081;-78
2023/03/24 10:43:19;;;;;;;9.95;1.55;;;14.50;96.50;;;;;;4792378;30;20042;-77
2023/03/24 10:45:48;;;;;;;9.00;0.93;;;14.60;96.30;;;;;;4804368;29;20027;-78
2023/03/24 10:48:38;;;;;;;10.73;1.73;;;14.80;96.00;;;;;;4805184;30;20031;-77
2023/03/24 10:51:05;;;;;;;11.93;2.25;;;15.00;95.40;;;;;;4804981;30;20047;-79
2023/03/24 10:53:32;;;;;;;9.75;1.45;;;15.10;94.60;;;;;;4792096;30;20027;-78
2023/03/24 10:55:58;;;;;;;9.07;1.02;;;15.20;94.70;;;;;;4790259;30;20032;-79
2023/03/24 10:58:34;;;;;;;10.07;1.23;;;15.10;94.10;;;;;;4808937;30;20046;-77
2023/03/24 11:01:01;;;;;;;9.95;1.40;;;14.90;93.90;;;;;;4792884;30;20023;-78
2023/03/24 11:03:33;;;;;;;10.13;1.27;;;14.80;94.30;;;;;;4807120;30;20063;-78
2023/03/24 11:06:03;;;;;;;11.60;1.13;;;14.70;94.70;;;;;;4806524;30;20031;-77
2023/03/24 11:08:36;;;;;;;11.25;1.67;;;14.60;94.90;;;;;;4791171;30;20036;-78
2023/03/24 11:11:14;;;;;;;8.02;1.60;;;14.60;95.30;;;;;;4805490;30;20041;-77
2023/03/24 11:13:41;;;;;;;8.63;1.30;;;14.50;95.80;;;;;;4806405;30;20035;-79
2023/03/24 11:16:15;;;;;;;13.63;2.78;;;14.40;96.50;;;;;;4790927;30;20066;-79
2023/03/24 11:19:18;;;;;;;8.20;1.25;;;14.20;97.20;;;;;;4785885;30;20035;-77
2023/03/24 11:21:44;;;;;;;7.80;1.20;;;14.10;98.00;;;;;;4782604;30;20043;-78
2023/03/24 11:24:15;;;;;;;4.38;1.02;;;14.00;98.50;;;;;;4793099;30;20046;-78
2023/03/24 11:26:45;;;;;;;7.03;1.10;;;13.90;99.00;;;;;;4798969;30;20039;-78
2023/03/24 11:29:14;;;;;;;9.02;1.20;;;13.80;99.10;;;;;;4799437;30;20027;-77
2023/03/24 11:31:41;;;;;;;10.80;1.30;;;13.70;99.50;;;;;;4795116;30;20039;-79
2023/03/24 11:34:24;;;;;;;4.53;0.75;;;13.70;99.90;;;;;;4798514;30;20039;-78
2023/03/24 11:37:08;;;;;;;2.45;0.30;;;13.50;99.80;;;;;;4796984;30;20059;-81
2023/03/24 11:39:34;;;;;;;5.22;0.32;;;13.40;99.90;;;;;;4790383;30;20035;-77
2023/03/24 11:42:16;;;;;;;2.45;0.30;;;13.40;99.90;;;;;;4788525;30;20046;-74
2023/03/24 11:44:48;;;;;;;4.10;0.57;;;13.50;99.90;;;;;;4788503;30;20122;-76
2023/03/24 11:47:23;;;;;;;2.35;0.30;;;13.70;99.90;;;;;;4787828;30;20032;-76
2023/03/24 11:50:11;;;;;;;4.75;0.45;;;13.70;99.90;;;;;;4774989;30;20032;-75
2023/03/24 11:53:35;;;;;;;3.40;0.35;;;13.90;99.70;;;;;;4767841;30;20107;-76
2023/03/24 11:56:14;;;;;;;3.47;0.20;;;14.10;99.30;;;;;;4751124;30;20037;-75
2023/03/24 11:58:49;;;;;;;2.72;0.30;;;14.20;97.90;;;;;;4788907;30;20374;-76
2023/03/24 12:01:21;;;;;;;3.83;0.45;;;14.20;97.40;;;;;;4787669;30;20103;-76
2023/03/24 12:04:14;;;;;;;4.20;0.47;;;14.00;97.30;;;;;;4772756;30;20039;-76
2023/03/24 12:07:13;;;;;;;8.80;0.98;;;14.00;98.10;;;;;;4773264;30;20027;-77
2023/03/24 12:09:52;;;;;;;6.93;1.23;;;13.90;98.90;;;;;;4788149;30;20046;-78
2023/03/24 12:12:55;;;;;;;8.43;1.27;;;13.70;99.90;;;;;;4773089;30;20047;-75
2023/03/24 12:15:32;;;;;;;10.70;1.40;;;13.70;99.90;;;;;;4758639;30;20505;-76
2023/03/24 12:18:03;;;;;;;9.25;1.70;;;13.50;99.90;;;;;;4788937;30;20039;-76
2023/03/24 12:20:43;;;;;;;8.95;1.52;;;13.30;99.90;;;;;;4788443;30;20505;-75
2023/03/24 12:23:14;;;;;;;7.68;1.38;;;13.10;99.90;;;;;;4773189;30;20095;-75
2023/03/24 12:26:04;;;;;;;5.72;0.90;;;13.00;99.90;;;;;;4788186;30;20366;-75
2023/03/24 12:28:57;;;;;;;3.55;0.60;;;12.90;99.90;;;;;;4788142;30;20078;-75
2023/03/24 12:31:52;;;;;;;5.85;0.50;;;12.80;99.90;;;;;;4788554;30;20122;-75
2023/03/24 12:34:32;;;;;;;6.47;0.95;;;12.70;99.90;;;;;;4787754;30;20047;-74
2023/03/24 12:37:09;;;;;;;5.90;0.65;;;12.70;99.90;;;;;;4788261;30;20058;-76
2023/03/24 12:39:49;;;;;;;4.95;0.50;;;12.50;99.90;;;;;;4787167;30;20462;-75
2023/03/24 12:42:18;;;;;;;4.45;0.57;;;12.30;99.90;;;;;;4787338;30;20550;-74
2023/03/24 12:45:19;;;;;;;4.90;0.57;;;12.30;99.90;;;;;;4787514;30;20469;-77
2023/03/24 12:48:00;;;;;;;6.68;0.50;;;12.20;99.90;;;;;;4787747;30;20377;-75
2023/03/24 12:50:40;;;;;;;5.93;0.40;;;12.30;99.90;;;;;;4788000;30;20031;-75
2023/03/24 12:53:38;;;;;;;5.10;0.40;;;12.40;99.90;;;;;;4787869;30;20043;-75
2023/03/24 12:56:30;;;;;;;5.13;0.70;;;12.50;99.90;;;;;;4787293;30;20038;-76
2023/03/24 12:59:13;;;;;;;7.28;0.50;;;12.60;99.90;;;;;;4787829;30;20031;-77
2023/03/24 13:01:45;;;;;;;3.80;0.52;;;12.90;99.90;;;;;;4787689;30;20035;-75
2023/03/24 13:04:23;;;;;;;4.70;0.50;;;13.10;99.90;;;;;;4788035;30;20114;-76
2023/03/24 13:07:00;;;;;;;3.78;0.60;;;13.30;99.90;;;;;;4771716;30;20039;-76
2023/03/24 13:09:54;;;;;;;5.40;0.60;;;13.60;99.90;;;;;;4790671;29;20446;-77